sensor_id;sensor_type;location;lat;lon;timestamp;P1;durP1;ratioP1;P2;durP2;ratioP2
12852;SDS011;6495;51.808;7.478;2022-12-07T00:01:25;7.00;;;5.00;;
12852;SDS011;6495;51.808;7.478;2022-12-07T00:04:14;7.43;;;5.30;;
12852;SDS011;6495;51.808;7.478;2022-12-07T00:07:03;8.80;;;4.87;;
12852;SDS011;6495;51.808;7.478;2022-12-07T00:09:50;8.30;;;5.30;;
12852;SDS011;6495;51.808;7.478;2022-12-07T00:12:39;6.73;;;4.43;;
12852;SDS011;6495;51.808;7.478;2022-12-07T00:15:26;8.17;;;5.27;;
12852;SDS011;6495;51.808;7.478;2022-12-07T00:18:14;9.47;;;4.80;;
12852;SDS011;6495;51.808;7.478;2022-12-07T00:21:01;7.30;;;4.80;;
12852;SDS011;6495;51.808;7.478;2022-12-07T00:23:51;7.53;;;5.00;;
12852;SDS011;6495;51.808;7.478;2022-12-07T00:26:40;7.00;;;4.43;;
12852;SDS011;6495;51.808;7.478;2022-12-07T00:29:28;7.67;;;4.57;;
12852;SDS011;6495;51.808;7.478;2022-12-07T00:32:15;6.33;;;5.07;;
12852;SDS011;6495;51.808;7.478;2022-12-07T00:35:03;6.43;;;4.77;;
12852;SDS011;6495;51.808;7.478;2022-12-07T00:37:51;11.57;;;5.57;;
12852;SDS011;6495;51.808;7.478;2022-12-07T00:40:37;11.10;;;6.23;;
12852;SDS011;6495;51.808;7.478;2022-12-07T00:43:24;9.10;;;5.20;;
12852;SDS011;6495;51.808;7.478;2022-12-07T00:46:11;10.27;;;5.40;;
12852;SDS011;6495;51.808;7.478;2022-12-07T00:48:58;10.63;;;4.90;;
12852;SDS011;6495;51.808;7.478;2022-12-07T00:51:48;6.57;;;5.10;;
12852;SDS011;6495;51.808;7.478;2022-12-07T00:54:35;6.10;;;4.87;;
12852;SDS011;6495;51.808;7.478;2022-12-07T00:57:22;7.03;;;5.17;;
12852;SDS011;6495;51.808;7.478;2022-12-07T01:00:09;7.03;;;5.17;;
12852;SDS011;6495;51.808;7.478;2022-12-07T01:02:56;7.33;;;5.03;;
12852;SDS011;6495;51.808;7.478;2022-12-07T01:05:48;8.10;;;5.23;;
12852;SDS011;6495;51.808;7.478;2022-12-07T01:08:38;8.90;;;5.33;;
12852;SDS011;6495;51.808;7.478;2022-12-07T01:11:25;7.80;;;4.97;;
12852;SDS011;6495;51.808;7.478;2022-12-07T01:14:15;6.90;;;4.77;;
12852;SDS011;6495;51.808;7.478;2022-12-07T01:17:02;7.13;;;4.83;;
12852;SDS011;6495;51.808;7.478;2022-12-07T01:19:49;6.80;;;4.50;;
12852;SDS011;6495;51.808;7.478;2022-12-07T01:22:36;6.40;;;4.23;;
12852;SDS011;6495;51.808;7.478;2022-12-07T01:25:24;6.70;;;4.30;;
12852;SDS011;6495;51.808;7.478;2022-12-07T01:28:11;8.07;;;5.47;;
12852;SDS011;6495;51.808;7.478;2022-12-07T01:30:58;7.07;;;4.83;;
12852;SDS011;6495;51.808;7.478;2022-12-07T01:33:50;7.03;;;4.80;;
12852;SDS011;6495;51.808;7.478;2022-12-07T01:36:39;7.40;;;4.90;;
12852;SDS011;6495;51.808;7.478;2022-12-07T01:39:26;6.20;;;4.47;;
12852;SDS011;6495;51.808;7.478;2022-12-07T01:42:14;9.33;;;4.63;;
12852;SDS011;6495;51.808;7.478;2022-12-07T01:48:31;8.27;;;5.03;;
12852;SDS011;6495;51.808;7.478;2022-12-07T01:51:22;9.50;;;4.77;;
12852;SDS011;6495;51.808;7.478;2022-12-07T01:54:09;7.60;;;5.37;;
12852;SDS011;6495;51.808;7.478;2022-12-07T01:56:59;6.37;;;4.83;;
12852;SDS011;6495;51.808;7.478;2022-12-07T01:59:51;9.47;;;4.83;;
12852;SDS011;6495;51.808;7.478;2022-12-07T02:02:41;6.77;;;4.90;;
12852;SDS011;6495;51.808;7.478;2022-12-07T02:05:34;7.90;;;4.80;;
12852;SDS011;6495;51.808;7.478;2022-12-07T02:08:24;6.80;;;4.53;;
12852;SDS011;6495;51.808;7.478;2022-12-07T02:11:11;7.07;;;4.87;;
12852;SDS011;6495;51.808;7.478;2022-12-07T02:13:58;6.80;;;4.77;;
12852;SDS011;6495;51.808;7.478;2022-12-07T02:16:49;9.73;;;5.03;;
12852;SDS011;6495;51.808;7.478;2022-12-07T02:27:07;7.27;;;5.17;;
12852;SDS011;6495;51.808;7.478;2022-12-07T02:30:15;8.63;;;4.87;;
12852;SDS011;6495;51.808;7.478;2022-12-07T02:33:07;9.00;;;5.17;;
12852;SDS011;6495;51.808;7.478;2022-12-07T02:36:01;8.23;;;5.47;;
12852;SDS011;6495;51.808;7.478;2022-12-07T02:38:54;7.23;;;5.07;;
12852;SDS011;6495;51.808;7.478;2022-12-07T02:41:47;8.67;;;5.00;;
12852;SDS011;6495;51.808;7.478;2022-12-07T02:44:41;8.23;;;5.37;;
12852;SDS011;6495;51.808;7.478;2022-12-07T02:47:30;7.43;;;4.90;;
12852;SDS011;6495;51.808;7.478;2022-12-07T02:50:20;7.07;;;4.60;;
12852;SDS011;6495;51.808;7.478;2022-12-07T02:56:21;9.27;;;5.47;;
12852;SDS011;6495;51.808;7.478;2022-12-07T02:59:17;6.83;;;5.30;;
12852;SDS011;6495;51.808;7.478;2022-12-07T03:02:21;8.13;;;5.27;;
12852;SDS011;6495;51.808;7.478;2022-12-07T03:08:38;7.50;;;4.93;;
12852;SDS011;6495;51.808;7.478;2022-12-07T03:11:38;8.43;;;5.17;;
12852;SDS011;6495;51.808;7.478;2022-12-07T03:14:34;10.80;;;4.93;;
12852;SDS011;6495;51.808;7.478;2022-12-07T03:17:30;7.13;;;4.83;;
12852;SDS011;6495;51.808;7.478;2022-12-07T03:20:23;7.83;;;5.17;;
12852;SDS011;6495;51.808;7.478;2022-12-07T03:23:14;10.53;;;5.33;;
12852;SDS011;6495;51.808;7.478;2022-12-07T03:26:05;6.03;;;4.40;;
12852;SDS011;6495;51.808;7.478;2022-12-07T03:28:58;8.17;;;5.33;;
12852;SDS011;6495;51.808;7.478;2022-12-07T03:31:52;8.27;;;5.13;;
12852;SDS011;6495;51.808;7.478;2022-12-07T03:34:47;8.47;;;5.40;;
12852;SDS011;6495;51.808;7.478;2022-12-07T03:37:43;7.63;;;4.80;;
12852;SDS011;6495;51.808;7.478;2022-12-07T03:40:39;8.37;;;4.83;;
12852;SDS011;6495;51.808;7.478;2022-12-07T03:43:34;9.13;;;5.10;;
12852;SDS011;6495;51.808;7.478;2022-12-07T03:46:25;7.83;;;5.00;;
12852;SDS011;6495;51.808;7.478;2022-12-07T03:49:23;7.00;;;5.03;;
12852;SDS011;6495;51.808;7.478;2022-12-07T03:52:18;6.07;;;4.63;;
12852;SDS011;6495;51.808;7.478;2022-12-07T03:55:14;10.73;;;4.63;;
12852;SDS011;6495;51.808;7.478;2022-12-07T03:58:10;9.77;;;5.10;;
12852;SDS011;6495;51.808;7.478;2022-12-07T04:01:01;8.40;;;4.80;;
12852;SDS011;6495;51.808;7.478;2022-12-07T04:03:48;9.10;;;5.13;;
12852;SDS011;6495;51.808;7.478;2022-12-07T04:06:35;8.07;;;5.27;;
12852;SDS011;6495;51.808;7.478;2022-12-07T04:09:22;8.57;;;5.57;;
12852;SDS011;6495;51.808;7.478;2022-12-07T04:12:09;9.03;;;5.23;;
12852;SDS011;6495;51.808;7.478;2022-12-07T04:14:57;7.87;;;5.23;;
12852;SDS011;6495;51.808;7.478;2022-12-07T04:17:43;9.43;;;5.27;;
12852;SDS011;6495;51.808;7.478;2022-12-07T04:20:30;9.23;;;5.17;;
12852;SDS011;6495;51.808;7.478;2022-12-07T04:23:17;8.90;;;4.87;;
12852;SDS011;6495;51.808;7.478;2022-12-07T04:26:04;8.67;;;4.60;;
12852;SDS011;6495;51.808;7.478;2022-12-07T04:28:50;8.87;;;4.63;;
12852;SDS011;6495;51.808;7.478;2022-12-07T04:31:38;4.13;;;3.63;;
12852;SDS011;6495;51.808;7.478;2022-12-07T04:34:26;5.17;;;3.50;;
12852;SDS011;6495;51.808;7.478;2022-12-07T04:37:12;5.93;;;4.43;;
12852;SDS011;6495;51.808;7.478;2022-12-07T04:39:59;6.00;;;3.67;;
12852;SDS011;6495;51.808;7.478;2022-12-07T04:42:46;5.93;;;3.90;;
12852;SDS011;6495;51.808;7.478;2022-12-07T04:45:33;6.47;;;3.83;;
12852;SDS011;6495;51.808;7.478;2022-12-07T04:48:21;7.97;;;3.77;;
12852;SDS011;6495;51.808;7.478;2022-12-07T04:51:07;8.13;;;4.00;;
12852;SDS011;6495;51.808;7.478;2022-12-07T04:53:54;8.37;;;4.40;;
12852;SDS011;6495;51.808;7.478;2022-12-07T04:56:42;6.20;;;3.47;;
12852;SDS011;6495;51.808;7.478;2022-12-07T04:59:29;7.33;;;3.97;;
12852;SDS011;6495;51.808;7.478;2022-12-07T05:02:16;4.80;;;3.60;;
12852;SDS011;6495;51.808;7.478;2022-12-07T05:05:04;9.37;;;3.67;;
12852;SDS011;6495;51.808;7.478;2022-12-07T05:07:52;8.10;;;3.53;;
12852;SDS011;6495;51.808;7.478;2022-12-07T05:10:39;8.93;;;3.80;;
12852;SDS011;6495;51.808;7.478;2022-12-07T05:13:25;5.50;;;3.67;;
12852;SDS011;6495;51.808;7.478;2022-12-07T05:16:12;6.50;;;3.33;;
12852;SDS011;6495;51.808;7.478;2022-12-07T05:19:01;6.20;;;3.77;;
12852;SDS011;6495;51.808;7.478;2022-12-07T05:21:50;9.10;;;4.00;;
12852;SDS011;6495;51.808;7.478;2022-12-07T05:24:36;9.03;;;4.07;;
12852;SDS011;6495;51.808;7.478;2022-12-07T05:27:23;4.63;;;3.57;;
12852;SDS011;6495;51.808;7.478;2022-12-07T05:30:12;3.57;;;2.80;;
12852;SDS011;6495;51.808;7.478;2022-12-07T05:32:59;4.30;;;2.70;;
12852;SDS011;6495;51.808;7.478;2022-12-07T05:35:50;4.27;;;3.13;;
12852;SDS011;6495;51.808;7.478;2022-12-07T05:38:40;6.87;;;3.13;;
12852;SDS011;6495;51.808;7.478;2022-12-07T05:41:27;5.60;;;2.97;;
12852;SDS011;6495;51.808;7.478;2022-12-07T05:44:46;5.93;;;3.17;;
12852;SDS011;6495;51.808;7.478;2022-12-07T05:47:33;5.43;;;3.00;;
12852;SDS011;6495;51.808;7.478;2022-12-07T05:50:20;4.80;;;3.27;;
12852;SDS011;6495;51.808;7.478;2022-12-07T05:53:07;4.33;;;3.33;;
12852;SDS011;6495;51.808;7.478;2022-12-07T05:55:55;3.60;;;2.60;;
12852;SDS011;6495;51.808;7.478;2022-12-07T05:58:42;5.10;;;3.33;;
12852;SDS011;6495;51.808;7.478;2022-12-07T06:01:46;5.37;;;3.03;;
12852;SDS011;6495;51.808;7.478;2022-12-07T06:04:34;5.90;;;3.20;;
12852;SDS011;6495;51.808;7.478;2022-12-07T06:07:24;6.47;;;3.70;;
12852;SDS011;6495;51.808;7.478;2022-12-07T06:10:11;5.33;;;3.10;;
12852;SDS011;6495;51.808;7.478;2022-12-07T06:12:58;4.10;;;3.00;;
12852;SDS011;6495;51.808;7.478;2022-12-07T06:15:47;5.20;;;2.93;;
12852;SDS011;6495;51.808;7.478;2022-12-07T06:18:34;3.93;;;2.70;;
12852;SDS011;6495;51.808;7.478;2022-12-07T06:21:20;5.17;;;2.73;;
12852;SDS011;6495;51.808;7.478;2022-12-07T06:24:08;6.17;;;3.13;;
12852;SDS011;6495;51.808;7.478;2022-12-07T06:26:57;7.73;;;3.57;;
12852;SDS011;6495;51.808;7.478;2022-12-07T06:29:45;5.23;;;2.80;;
12852;SDS011;6495;51.808;7.478;2022-12-07T06:32:32;4.10;;;2.83;;
12852;SDS011;6495;51.808;7.478;2022-12-07T06:35:19;4.83;;;2.90;;
12852;SDS011;6495;51.808;7.478;2022-12-07T06:38:06;3.90;;;2.67;;
12852;SDS011;6495;51.808;7.478;2022-12-07T06:40:53;4.57;;;3.53;;
12852;SDS011;6495;51.808;7.478;2022-12-07T06:43:40;6.27;;;3.33;;
12852;SDS011;6495;51.808;7.478;2022-12-07T06:46:28;5.50;;;3.40;;
12852;SDS011;6495;51.808;7.478;2022-12-07T06:49:15;7.00;;;3.40;;
12852;SDS011;6495;51.808;7.478;2022-12-07T06:52:02;4.93;;;3.30;;
12852;SDS011;6495;51.808;7.478;2022-12-07T06:54:50;3.70;;;2.80;;
12852;SDS011;6495;51.808;7.478;2022-12-07T06:57:37;3.73;;;2.67;;
12852;SDS011;6495;51.808;7.478;2022-12-07T07:00:24;3.70;;;2.73;;
12852;SDS011;6495;51.808;7.478;2022-12-07T07:03:12;7.87;;;2.87;;
12852;SDS011;6495;51.808;7.478;2022-12-07T07:05:59;4.90;;;2.77;;
12852;SDS011;6495;51.808;7.478;2022-12-07T07:08:46;4.27;;;3.00;;
12852;SDS011;6495;51.808;7.478;2022-12-07T07:11:33;3.50;;;2.50;;
12852;SDS011;6495;51.808;7.478;2022-12-07T07:14:20;6.33;;;2.80;;
12852;SDS011;6495;51.808;7.478;2022-12-07T07:17:07;3.93;;;2.73;;
12852;SDS011;6495;51.808;7.478;2022-12-07T07:19:55;4.37;;;2.60;;
12852;SDS011;6495;51.808;7.478;2022-12-07T07:22:42;3.73;;;2.53;;
12852;SDS011;6495;51.808;7.478;2022-12-07T07:25:29;7.33;;;2.87;;
12852;SDS011;6495;51.808;7.478;2022-12-07T07:28:16;5.37;;;3.10;;
12852;SDS011;6495;51.808;7.478;2022-12-07T07:31:03;6.80;;;3.17;;
12852;SDS011;6495;51.808;7.478;2022-12-07T07:33:50;4.23;;;2.93;;
12852;SDS011;6495;51.808;7.478;2022-12-07T07:36:38;4.20;;;2.53;;
12852;SDS011;6495;51.808;7.478;2022-12-07T07:39:25;3.03;;;2.43;;
12852;SDS011;6495;51.808;7.478;2022-12-07T07:42:12;5.70;;;2.57;;
12852;SDS011;6495;51.808;7.478;2022-12-07T07:44:59;4.70;;;2.67;;
12852;SDS011;6495;51.808;7.478;2022-12-07T07:47:46;4.47;;;2.47;;
12852;SDS011;6495;51.808;7.478;2022-12-07T07:50:33;3.33;;;2.50;;
12852;SDS011;6495;51.808;7.478;2022-12-07T07:53:22;3.53;;;2.60;;
12852;SDS011;6495;51.808;7.478;2022-12-07T07:56:08;3.60;;;2.83;;
12852;SDS011;6495;51.808;7.478;2022-12-07T07:58:55;4.13;;;2.70;;
12852;SDS011;6495;51.808;7.478;2022-12-07T08:01:42;4.40;;;2.50;;
12852;SDS011;6495;51.808;7.478;2022-12-07T08:04:29;4.47;;;2.43;;
12852;SDS011;6495;51.808;7.478;2022-12-07T08:07:16;3.23;;;2.40;;
12852;SDS011;6495;51.808;7.478;2022-12-07T08:10:04;3.87;;;2.57;;
12852;SDS011;6495;51.808;7.478;2022-12-07T08:12:53;4.97;;;2.73;;
12852;SDS011;6495;51.808;7.478;2022-12-07T08:16:14;4.57;;;3.07;;
12852;SDS011;6495;51.808;7.478;2022-12-07T08:19:01;7.37;;;2.90;;
12852;SDS011;6495;51.808;7.478;2022-12-07T08:21:50;5.23;;;3.03;;
12852;SDS011;6495;51.808;7.478;2022-12-07T08:24:37;4.23;;;2.30;;
12852;SDS011;6495;51.808;7.478;2022-12-07T08:27:25;5.10;;;2.57;;
12852;SDS011;6495;51.808;7.478;2022-12-07T08:30:12;7.10;;;2.83;;
12852;SDS011;6495;51.808;7.478;2022-12-07T08:33:00;4.70;;;2.13;;
12852;SDS011;6495;51.808;7.478;2022-12-07T08:35:47;3.23;;;2.20;;
12852;SDS011;6495;51.808;7.478;2022-12-07T08:38:34;4.40;;;2.70;;
12852;SDS011;6495;51.808;7.478;2022-12-07T08:41:21;4.53;;;2.63;;
12852;SDS011;6495;51.808;7.478;2022-12-07T08:44:10;4.33;;;2.47;;
12852;SDS011;6495;51.808;7.478;2022-12-07T08:46:57;6.93;;;2.87;;
12852;SDS011;6495;51.808;7.478;2022-12-07T08:49:50;5.40;;;2.60;;
12852;SDS011;6495;51.808;7.478;2022-12-07T08:52:39;3.93;;;2.67;;
12852;SDS011;6495;51.808;7.478;2022-12-07T08:55:27;5.97;;;2.77;;
12852;SDS011;6495;51.808;7.478;2022-12-07T08:58:15;7.70;;;2.50;;
12852;SDS011;6495;51.808;7.478;2022-12-07T09:01:03;3.70;;;2.57;;
12852;SDS011;6495;51.808;7.478;2022-12-07T09:03:50;4.03;;;2.50;;
12852;SDS011;6495;51.808;7.478;2022-12-07T09:06:37;5.07;;;3.10;;
12852;SDS011;6495;51.808;7.478;2022-12-07T09:09:25;4.60;;;2.23;;
12852;SDS011;6495;51.808;7.478;2022-12-07T09:12:12;5.80;;;2.50;;
12852;SDS011;6495;51.808;7.478;2022-12-07T09:14:58;4.73;;;2.53;;
12852;SDS011;6495;51.808;7.478;2022-12-07T09:17:47;5.13;;;2.13;;
12852;SDS011;6495;51.808;7.478;2022-12-07T09:20:34;2.33;;;2.13;;
12852;SDS011;6495;51.808;7.478;2022-12-07T09:23:21;3.23;;;2.17;;
12852;SDS011;6495;51.808;7.478;2022-12-07T09:26:08;3.77;;;2.67;;
12852;SDS011;6495;51.808;7.478;2022-12-07T09:28:55;5.40;;;3.77;;
12852;SDS011;6495;51.808;7.478;2022-12-07T09:31:42;6.07;;;2.50;;
12852;SDS011;6495;51.808;7.478;2022-12-07T09:34:31;5.30;;;2.70;;
12852;SDS011;6495;51.808;7.478;2022-12-07T09:37:18;4.20;;;2.90;;
12852;SDS011;6495;51.808;7.478;2022-12-07T09:40:06;7.30;;;5.40;;
12852;SDS011;6495;51.808;7.478;2022-12-07T09:42:53;4.20;;;3.23;;
12852;SDS011;6495;51.808;7.478;2022-12-07T09:45:42;6.47;;;2.63;;
12852;SDS011;6495;51.808;7.478;2022-12-07T09:48:33;5.30;;;2.60;;
12852;SDS011;6495;51.808;7.478;2022-12-07T09:51:25;4.33;;;2.80;;
12852;SDS011;6495;51.808;7.478;2022-12-07T09:54:12;7.00;;;2.73;;
12852;SDS011;6495;51.808;7.478;2022-12-07T09:57:01;3.30;;;2.50;;
12852;SDS011;6495;51.808;7.478;2022-12-07T09:59:48;3.83;;;2.10;;
12852;SDS011;6495;51.808;7.478;2022-12-07T10:02:36;4.73;;;2.00;;
12852;SDS011;6495;51.808;7.478;2022-12-07T10:05:28;6.90;;;2.40;;
12852;SDS011;6495;51.808;7.478;2022-12-07T10:08:24;2.83;;;1.93;;
12852;SDS011;6495;51.808;7.478;2022-12-07T10:11:11;4.27;;;2.33;;
12852;SDS011;6495;51.808;7.478;2022-12-07T10:14:10;5.00;;;2.33;;
12852;SDS011;6495;51.808;7.478;2022-12-07T10:16:59;4.27;;;2.37;;
12852;SDS011;6495;51.808;7.478;2022-12-07T10:19:47;3.20;;;1.93;;
12852;SDS011;6495;51.808;7.478;2022-12-07T10:22:34;4.43;;;2.57;;
12852;SDS011;6495;51.808;7.478;2022-12-07T10:25:22;3.47;;;2.10;;
12852;SDS011;6495;51.808;7.478;2022-12-07T10:28:13;3.10;;;2.17;;
12852;SDS011;6495;51.808;7.478;2022-12-07T10:31:15;3.47;;;2.20;;
12852;SDS011;6495;51.808;7.478;2022-12-07T10:34:12;3.13;;;2.03;;
12852;SDS011;6495;51.808;7.478;2022-12-07T10:37:16;5.00;;;2.20;;
12852;SDS011;6495;51.808;7.478;2022-12-07T10:40:23;2.23;;;2.03;;
12852;SDS011;6495;51.808;7.478;2022-12-07T10:43:28;5.37;;;2.33;;
12852;SDS011;6495;51.808;7.478;2022-12-07T10:46:21;3.17;;;2.27;;
12852;SDS011;6495;51.808;7.478;2022-12-07T10:53:11;2.43;;;2.03;;
12852;SDS011;6495;51.808;7.478;2022-12-07T10:56:25;2.30;;;1.97;;
12852;SDS011;6495;51.808;7.478;2022-12-07T11:00:04;2.60;;;2.13;;
12852;SDS011;6495;51.808;7.478;2022-12-07T11:03:21;7.00;;;2.00;;
12852;SDS011;6495;51.808;7.478;2022-12-07T11:06:33;4.70;;;1.60;;
12852;SDS011;6495;51.808;7.478;2022-12-07T11:09:38;5.20;;;1.80;;
12852;SDS011;6495;51.808;7.478;2022-12-07T11:13:12;5.80;;;2.00;;
12852;SDS011;6495;51.808;7.478;2022-12-07T11:16:32;5.23;;;2.00;;
12852;SDS011;6495;51.808;7.478;2022-12-07T11:19:49;3.07;;;1.57;;
12852;SDS011;6495;51.808;7.478;2022-12-07T11:22:51;2.33;;;1.43;;
12852;SDS011;6495;51.808;7.478;2022-12-07T11:25:50;4.27;;;2.23;;
12852;SDS011;6495;51.808;7.478;2022-12-07T11:28:53;4.30;;;1.57;;
12852;SDS011;6495;51.808;7.478;2022-12-07T11:32:13;3.43;;;1.70;;
12852;SDS011;6495;51.808;7.478;2022-12-07T11:35:10;3.03;;;1.80;;
12852;SDS011;6495;51.808;7.478;2022-12-07T11:38:10;2.83;;;1.63;;
12852;SDS011;6495;51.808;7.478;2022-12-07T11:41:05;1.37;;;1.27;;
12852;SDS011;6495;51.808;7.478;2022-12-07T11:44:00;3.90;;;1.80;;
12852;SDS011;6495;51.808;7.478;2022-12-07T11:46:54;3.27;;;2.17;;
12852;SDS011;6495;51.808;7.478;2022-12-07T11:49:50;2.83;;;1.60;;
12852;SDS011;6495;51.808;7.478;2022-12-07T11:52:43;5.37;;;1.60;;
12852;SDS011;6495;51.808;7.478;2022-12-07T11:55:42;4.97;;;1.47;;
12852;SDS011;6495;51.808;7.478;2022-12-07T11:58:39;1.97;;;1.53;;
12852;SDS011;6495;51.808;7.478;2022-12-07T12:01:42;2.50;;;1.60;;
12852;SDS011;6495;51.808;7.478;2022-12-07T12:04:42;3.00;;;1.63;;
12852;SDS011;6495;51.808;7.478;2022-12-07T12:07:38;1.83;;;1.30;;
12852;SDS011;6495;51.808;7.478;2022-12-07T12:10:51;1.83;;;1.33;;
12852;SDS011;6495;51.808;7.478;2022-12-07T12:13:51;2.97;;;1.47;;
12852;SDS011;6495;51.808;7.478;2022-12-07T12:17:30;2.23;;;1.30;;
12852;SDS011;6495;51.808;7.478;2022-12-07T12:21:00;2.33;;;1.57;;
12852;SDS011;6495;51.808;7.478;2022-12-07T12:23:55;1.90;;;1.43;;
12852;SDS011;6495;51.808;7.478;2022-12-07T12:26:48;1.73;;;1.40;;
12852;SDS011;6495;51.808;7.478;2022-12-07T12:29:39;3.87;;;1.70;;
12852;SDS011;6495;51.808;7.478;2022-12-07T12:32:33;8.20;;;1.70;;
12852;SDS011;6495;51.808;7.478;2022-12-07T12:35:29;2.17;;;1.50;;
12852;SDS011;6495;51.808;7.478;2022-12-07T12:38:27;1.93;;;1.30;;
12852;SDS011;6495;51.808;7.478;2022-12-07T12:51:35;4.27;;;1.20;;
12852;SDS011;6495;51.808;7.478;2022-12-07T12:54:24;8.83;;;1.30;;
12852;SDS011;6495;51.808;7.478;2022-12-07T12:57:15;3.07;;;1.20;;
12852;SDS011;6495;51.808;7.478;2022-12-07T13:00:15;3.53;;;1.57;;
12852;SDS011;6495;51.808;7.478;2022-12-07T13:03:05;2.43;;;1.10;;
12852;SDS011;6495;51.808;7.478;2022-12-07T13:06:31;1.87;;;1.00;;
12852;SDS011;6495;51.808;7.478;2022-12-07T13:09:23;2.90;;;1.20;;
12852;SDS011;6495;51.808;7.478;2022-12-07T13:12:14;2.43;;;1.33;;
12852;SDS011;6495;51.808;7.478;2022-12-07T13:15:19;1.80;;;1.03;;
12852;SDS011;6495;51.808;7.478;2022-12-07T13:18:23;2.77;;;1.40;;
12852;SDS011;6495;51.808;7.478;2022-12-07T13:24:30;2.40;;;1.00;;
12852;SDS011;6495;51.808;7.478;2022-12-07T13:27:18;1.67;;;1.10;;
12852;SDS011;6495;51.808;7.478;2022-12-07T13:30:11;2.57;;;1.30;;
12852;SDS011;6495;51.808;7.478;2022-12-07T13:33:03;3.97;;;1.50;;
12852;SDS011;6495;51.808;7.478;2022-12-07T13:35:53;1.47;;;1.10;;
12852;SDS011;6495;51.808;7.478;2022-12-07T13:38:47;3.63;;;1.13;;
12852;SDS011;6495;51.808;7.478;2022-12-07T13:41:42;4.17;;;1.40;;
12852;SDS011;6495;51.808;7.478;2022-12-07T13:44:34;3.17;;;1.20;;
12852;SDS011;6495;51.808;7.478;2022-12-07T13:47:28;3.23;;;1.50;;
12852;SDS011;6495;51.808;7.478;2022-12-07T13:50:22;4.17;;;1.30;;
12852;SDS011;6495;51.808;7.478;2022-12-07T13:53:12;4.13;;;1.70;;
12852;SDS011;6495;51.808;7.478;2022-12-07T13:56:01;5.97;;;1.57;;
12852;SDS011;6495;51.808;7.478;2022-12-07T13:58:48;1.40;;;1.20;;
12852;SDS011;6495;51.808;7.478;2022-12-07T14:01:35;2.43;;;1.10;;
12852;SDS011;6495;51.808;7.478;2022-12-07T14:04:32;8.67;;;1.60;;
12852;SDS011;6495;51.808;7.478;2022-12-07T14:07:22;2.93;;;1.03;;
12852;SDS011;6495;51.808;7.478;2022-12-07T14:10:22;3.67;;;1.23;;
12852;SDS011;6495;51.808;7.478;2022-12-07T14:13:24;4.13;;;1.30;;
12852;SDS011;6495;51.808;7.478;2022-12-07T14:16:22;1.27;;;0.83;;
12852;SDS011;6495;51.808;7.478;2022-12-07T14:22:33;2.90;;;1.07;;
12852;SDS011;6495;51.808;7.478;2022-12-07T14:25:22;1.20;;;0.90;;
12852;SDS011;6495;51.808;7.478;2022-12-07T14:28:25;3.83;;;1.00;;
12852;SDS011;6495;51.808;7.478;2022-12-07T14:31:14;3.13;;;0.90;;
12852;SDS011;6495;51.808;7.478;2022-12-07T14:34:13;5.33;;;0.90;;
12852;SDS011;6495;51.808;7.478;2022-12-07T14:37:00;2.80;;;1.10;;
12852;SDS011;6495;51.808;7.478;2022-12-07T14:39:47;1.70;;;0.73;;
12852;SDS011;6495;51.808;7.478;2022-12-07T14:42:34;4.87;;;0.90;;
12852;SDS011;6495;51.808;7.478;2022-12-07T14:45:22;1.37;;;0.60;;
12852;SDS011;6495;51.808;7.478;2022-12-07T14:48:10;1.90;;;0.83;;
12852;SDS011;6495;51.808;7.478;2022-12-07T14:51:18;1.40;;;1.07;;
12852;SDS011;6495;51.808;7.478;2022-12-07T14:54:25;1.33;;;0.90;;
12852;SDS011;6495;51.808;7.478;2022-12-07T14:57:16;4.13;;;1.43;;
12852;SDS011;6495;51.808;7.478;2022-12-07T15:00:03;6.50;;;1.20;;
12852;SDS011;6495;51.808;7.478;2022-12-07T15:02:53;4.00;;;1.10;;
12852;SDS011;6495;51.808;7.478;2022-12-07T15:05:40;3.20;;;1.77;;
12852;SDS011;6495;51.808;7.478;2022-12-07T15:08:28;1.97;;;1.20;;
12852;SDS011;6495;51.808;7.478;2022-12-07T15:11:15;2.70;;;1.00;;
12852;SDS011;6495;51.808;7.478;2022-12-07T15:14:03;2.67;;;1.03;;
12852;SDS011;6495;51.808;7.478;2022-12-07T15:16:53;4.47;;;1.40;;
12852;SDS011;6495;51.808;7.478;2022-12-07T15:20:02;3.00;;;1.00;;
12852;SDS011;6495;51.808;7.478;2022-12-07T15:22:51;2.27;;;1.07;;
12852;SDS011;6495;51.808;7.478;2022-12-07T15:25:39;1.77;;;1.13;;
12852;SDS011;6495;51.808;7.478;2022-12-07T15:28:26;3.63;;;1.27;;
12852;SDS011;6495;51.808;7.478;2022-12-07T15:31:14;4.60;;;1.20;;
12852;SDS011;6495;51.808;7.478;2022-12-07T15:34:23;7.13;;;1.47;;
12852;SDS011;6495;51.808;7.478;2022-12-07T15:37:13;4.23;;;1.30;;
12852;SDS011;6495;51.808;7.478;2022-12-07T15:39:59;3.33;;;1.27;;
12852;SDS011;6495;51.808;7.478;2022-12-07T15:42:52;5.57;;;1.53;;
12852;SDS011;6495;51.808;7.478;2022-12-07T15:45:38;4.67;;;1.63;;
12852;SDS011;6495;51.808;7.478;2022-12-07T15:48:23;3.70;;;1.57;;
12852;SDS011;6495;51.808;7.478;2022-12-07T15:51:13;1.57;;;0.97;;
12852;SDS011;6495;51.808;7.478;2022-12-07T15:54:08;1.10;;;0.90;;
12852;SDS011;6495;51.808;7.478;2022-12-07T15:57:01;2.20;;;1.07;;
12852;SDS011;6495;51.808;7.478;2022-12-07T15:59:48;4.80;;;1.17;;
12852;SDS011;6495;51.808;7.478;2022-12-07T16:02:37;4.60;;;1.17;;
12852;SDS011;6495;51.808;7.478;2022-12-07T16:05:24;1.63;;;1.07;;
12852;SDS011;6495;51.808;7.478;2022-12-07T16:08:11;3.67;;;1.70;;
12852;SDS011;6495;51.808;7.478;2022-12-07T16:10:59;3.53;;;1.27;;
12852;SDS011;6495;51.808;7.478;2022-12-07T16:13:49;4.50;;;1.17;;
12852;SDS011;6495;51.808;7.478;2022-12-07T16:16:36;2.43;;;1.10;;
12852;SDS011;6495;51.808;7.478;2022-12-07T16:19:25;4.00;;;1.77;;
12852;SDS011;6495;51.808;7.478;2022-12-07T16:22:12;5.33;;;1.50;;
12852;SDS011;6495;51.808;7.478;2022-12-07T16:24:58;3.63;;;1.27;;
12852;SDS011;6495;51.808;7.478;2022-12-07T16:27:47;3.47;;;1.87;;
12852;SDS011;6495;51.808;7.478;2022-12-07T16:30:34;3.87;;;2.27;;
12852;SDS011;6495;51.808;7.478;2022-12-07T16:33:20;3.33;;;2.00;;
12852;SDS011;6495;51.808;7.478;2022-12-07T16:36:08;5.70;;;2.17;;
12852;SDS011;6495;51.808;7.478;2022-12-07T16:38:57;1.87;;;1.63;;
12852;SDS011;6495;51.808;7.478;2022-12-07T16:41:45;2.37;;;2.17;;
12852;SDS011;6495;51.808;7.478;2022-12-07T16:44:33;6.57;;;2.50;;
12852;SDS011;6495;51.808;7.478;2022-12-07T16:47:21;3.57;;;2.33;;
12852;SDS011;6495;51.808;7.478;2022-12-07T16:50:08;2.67;;;1.80;;
12852;SDS011;6495;51.808;7.478;2022-12-07T16:52:55;3.37;;;2.00;;
12852;SDS011;6495;51.808;7.478;2022-12-07T16:55:42;2.20;;;1.87;;
12852;SDS011;6495;51.808;7.478;2022-12-07T16:58:30;2.73;;;1.83;;
12852;SDS011;6495;51.808;7.478;2022-12-07T17:01:19;3.67;;;2.07;;
12852;SDS011;6495;51.808;7.478;2022-12-07T17:04:07;2.73;;;2.07;;
12852;SDS011;6495;51.808;7.478;2022-12-07T17:06:55;3.00;;;1.90;;
12852;SDS011;6495;51.808;7.478;2022-12-07T17:09:43;3.83;;;2.30;;
12852;SDS011;6495;51.808;7.478;2022-12-07T17:12:30;5.93;;;2.27;;
12852;SDS011;6495;51.808;7.478;2022-12-07T17:15:17;3.93;;;2.10;;
12852;SDS011;6495;51.808;7.478;2022-12-07T17:18:07;3.50;;;2.40;;
12852;SDS011;6495;51.808;7.478;2022-12-07T17:20:53;7.73;;;2.30;;
12852;SDS011;6495;51.808;7.478;2022-12-07T17:23:49;5.53;;;2.53;;
12852;SDS011;6495;51.808;7.478;2022-12-07T17:26:37;3.13;;;2.07;;
12852;SDS011;6495;51.808;7.478;2022-12-07T17:29:24;5.27;;;2.10;;
12852;SDS011;6495;51.808;7.478;2022-12-07T17:32:11;6.27;;;3.30;;
12852;SDS011;6495;51.808;7.478;2022-12-07T17:35:00;5.23;;;2.50;;
12852;SDS011;6495;51.808;7.478;2022-12-07T17:37:47;5.93;;;2.70;;
12852;SDS011;6495;51.808;7.478;2022-12-07T17:40:35;3.37;;;2.43;;
12852;SDS011;6495;51.808;7.478;2022-12-07T17:43:21;4.50;;;2.53;;
12852;SDS011;6495;51.808;7.478;2022-12-07T17:46:08;4.23;;;2.50;;
12852;SDS011;6495;51.808;7.478;2022-12-07T17:48:54;2.60;;;2.00;;
12852;SDS011;6495;51.808;7.478;2022-12-07T17:51:42;3.87;;;2.30;;
12852;SDS011;6495;51.808;7.478;2022-12-07T17:54:58;2.80;;;2.20;;
12852;SDS011;6495;51.808;7.478;2022-12-07T17:57:46;4.70;;;2.20;;
12852;SDS011;6495;51.808;7.478;2022-12-07T18:00:32;6.40;;;2.20;;
12852;SDS011;6495;51.808;7.478;2022-12-07T18:03:22;4.53;;;2.03;;
12852;SDS011;6495;51.808;7.478;2022-12-07T18:06:09;7.53;;;2.17;;